Time;durP1;ratioP1;P1;durP2;ratioP2;P2;SDS_P1;SDS_P2;PMS_P1;PMS_P2;Temp;Humidity;BMP_temperature;BMP_pressure;BME280_temperature;BME280_humidity;BME280_pressure;Samples;Min_cycle;Max_cycle;Signal;HPM_P1;HPM_P2
2022/03/30 00:00:30;;;;;;;31.88;18.65;;;;;;;8.85;64.13;100585.72;5029665;28;20037;-69
2022/03/30 00:02:55;;;;;;;32.28;17.73;;;;;;;8.85;63.47;100581.13;5031375;28;20041;-71
2022/03/30 00:05:21;;;;;;;28.88;18.20;;;;;;;8.85;63.59;100588.41;5031660;28;20038;-69
2022/03/30 00:07:53;;;;;;;33.75;18.38;;;;;;;8.85;64.10;100585.72;5031735;28;20061;-69
2022/03/30 00:10:19;;;;;;;36.33;19.13;;;;;;;8.87;64.42;100594.41;5031931;28;20032;-68
2022/03/30 00:12:45;;;;;;;34.20;17.95;;;;;;;8.77;64.24;100585.97;5031825;28;20029;-70
2022/03/30 00:15:10;;;;;;;32.17;17.95;;;;;;;8.78;64.74;100587.63;5032022;28;20037;-71
2022/03/30 00:17:35;;;;;;;35.20;18.70;;;;;;;8.77;64.54;100592.22;5031747;28;20087;-70
2022/03/30 00:20:02;;;;;;;34.97;18.63;;;;;;;8.66;65.33;100587.50;5031854;28;20025;-71
2022/03/30 00:22:27;;;;;;;35.78;18.90;;;;;;;8.59;64.98;100587.56;5031886;28;20362;-70
2022/03/30 00:24:53;;;;;;;32.63;18.17;;;;;;;8.61;65.42;100587.34;5031489;28;20086;-71
2022/03/30 00:27:18;;;;;;;29.38;17.70;;;;;;;8.54;64.91;100581.97;5032138;28;20034;-70
2022/03/30 00:29:45;;;;;;;33.45;18.58;;;;;;;8.48;65.93;100582.84;5031445;28;20029;-70
2022/03/30 00:32:10;;;;;;;32.35;17.45;;;;;;;8.44;65.61;100584.31;5014159;28;20484;-69
2022/03/30 00:34:36;;;;;;;34.28;18.95;;;;;;;8.39;66.22;100579.56;5031661;28;20033;-70
2022/03/30 00:37:01;;;;;;;36.08;19.63;;;;;;;8.43;65.56;100577.28;5031985;28;20036;-70
2022/03/30 00:39:26;;;;;;;37.28;19.50;;;;;;;8.37;66.81;100570.88;5031754;28;20034;-70
2022/03/30 00:41:52;;;;;;;36.83;20.00;;;;;;;8.42;66.11;100564.81;5031688;28;20108;-69
2022/03/30 00:44:17;;;;;;;34.30;19.73;;;;;;;8.45;65.91;100565.22;5031854;28;20542;-70
2022/03/30 00:46:43;;;;;;;37.88;19.05;;;;;;;8.45;65.96;100565.22;5031860;28;20029;-68
2022/03/30 00:49:09;;;;;;;32.47;19.02;;;;;;;8.44;66.10;100560.06;5032051;28;20052;-70
2022/03/30 00:51:34;;;;;;;38.95;19.63;;;;;;;8.36;65.65;100568.38;5031448;28;20042;-69
2022/03/30 00:54:00;;;;;;;43.33;19.90;;;;;;;8.28;66.36;100567.59;5031498;28;20038;-70
2022/03/30 00:56:29;;;;;;;32.65;19.38;;;;;;;8.22;66.51;100565.78;5031750;28;20033;-68
2022/03/30 00:58:54;;;;;;;35.05;18.63;;;;;;;8.16;67.05;100574.72;5030200;28;20107;-72
2022/03/30 01:01:20;;;;;;;33.15;18.67;;;;;;;8.15;67.17;100570.38;5029222;28;20065;-69
2022/03/30 01:03:46;;;;;;;39.67;18.60;;;;;;;8.03;66.36;100561.31;5030896;28;20057;-70
2022/03/30 01:06:11;;;;;;;38.40;19.27;;;;;;;8.07;67.00;100554.47;5031408;28;20566;-70
2022/03/30 01:08:37;;;;;;;33.17;18.38;;;;;;;7.96;67.42;100556.78;5029890;28;20077;-71
2022/03/30 01:11:02;;;;;;;34.40;18.48;;;;;;;7.92;66.63;100560.94;5031705;28;20068;-71
2022/03/30 01:13:28;;;;;;;36.60;19.10;;;;;;;7.91;67.17;100551.22;5031464;28;20021;-70
2022/03/30 01:15:53;;;;;;;37.47;19.15;;;;;;;7.87;66.83;100552.69;5034106;28;20060;-70
2022/03/30 01:18:19;;;;;;;31.65;18.65;;;;;;;7.84;66.52;100547.72;5034796;28;20065;-71
2022/03/30 01:20:49;;;;;;;33.38;18.40;;;;;;;7.71;67.85;100542.41;5017182;28;20068;-69
2022/03/30 01:23:14;;;;;;;37.80;19.63;;;;;;;7.70;67.37;100538.03;5034754;28;20504;-71
2022/03/30 01:25:40;;;;;;;37.47;19.20;;;;;;;7.73;67.52;100548.38;5035081;28;20116;-72
2022/03/30 01:28:05;;;;;;;38.00;19.20;;;;;;;7.68;67.29;100542.84;5034812;28;20457;-72
2022/03/30 01:33:15;;;;;;;38.35;19.45;;;;;;;7.57;67.64;100534.38;5034807;28;20160;-68
2022/03/30 01:35:40;;;;;;;39.45;19.38;;;;;;;7.48;67.75;100530.25;5034497;28;20037;-69
2022/03/30 01:38:05;;;;;;;36.50;19.35;;;;;;;7.40;68.26;100534.03;5034835;28;20381;-70
2022/03/30 01:40:31;;;;;;;33.20;18.83;;;;;;;7.36;68.23;100524.69;5017342;28;20037;-70
2022/03/30 01:42:57;;;;;;;38.05;19.38;;;;;;;7.32;68.45;100530.72;5034516;28;20029;-69
2022/03/30 01:45:22;;;;;;;34.35;18.45;;;;;;;7.28;68.20;100527.63;5035009;28;20038;-71
2022/03/30 01:47:59;;;;;;;34.88;18.52;;;;;;;7.23;68.63;100536.34;5034263;28;20037;-72
2022/03/30 01:50:25;;;;;;;36.08;18.98;;;;;;;7.18;68.65;100535.31;5033889;28;20405;-70
2022/03/30 01:52:52;;;;;;;35.95;19.13;;;;;;;7.13;68.81;100530.56;5033551;28;20057;-71
2022/03/30 01:55:18;;;;;;;33.67;19.38;;;;;;;7.10;68.79;100531.00;5034249;28;20507;-71
2022/03/30 01:57:44;;;;;;;32.97;18.80;;;;;;;7.16;68.96;100518.56;5034122;28;20056;-69
2022/03/30 02:00:11;;;;;;;35.97;19.35;;;;;;;7.16;69.24;100527.47;5034375;28;20037;-71
2022/03/30 02:02:38;;;;;;;35.42;18.95;;;;;;;7.13;69.61;100521.69;5031846;28;20080;-72
2022/03/30 02:05:04;;;;;;;35.97;19.35;;;;;;;7.13;69.47;100521.69;5033989;28;20461;-71
2022/03/30 02:07:29;;;;;;;35.17;19.67;;;;;;;7.04;69.68;100515.69;5033659;28;20033;-71
2022/03/30 02:09:55;;;;;;;36.13;19.50;;;;;;;7.07;69.37;100521.47;5033892;28;20049;-69
2022/03/30 02:12:20;;;;;;;36.25;19.20;;;;;;;7.05;69.55;100512.78;5016443;28;20034;-69
2022/03/30 02:14:46;;;;;;;45.40;20.85;;;;;;;7.00;69.65;100517.13;5015533;28;20037;-70
2022/03/30 02:17:11;;;;;;;37.75;19.38;;;;;;;6.94;69.93;100515.28;5034280;28;20037;-71
2022/03/30 02:19:37;;;;;;;35.45;19.15;;;;;;;6.87;69.87;100510.75;5034007;28;20037;-69
2022/03/30 02:22:02;;;;;;;43.00;19.30;;;;;;;6.87;69.92;100510.75;5033834;28;20037;-69
2022/03/30 02:24:27;;;;;;;36.88;19.20;;;;;;;6.87;69.32;100502.69;5033852;28;20099;-72
2022/03/30 02:26:53;;;;;;;37.67;19.73;;;;;;;6.85;70.04;100509.28;5015679;28;20060;-72
2022/03/30 02:29:18;;;;;;;36.35;19.90;;;;;;;6.80;69.93;100499.16;5032368;28;20530;-77
2022/03/30 02:31:45;;;;;;;39.35;20.05;;;;;;;6.77;70.09;100498.75;5032105;28;20032;-78
2022/03/30 02:34:11;;;;;;;39.45;20.33;;;;;;;6.73;69.71;100487.56;5033574;28;20075;-70
2022/03/30 02:36:37;;;;;;;39.67;20.15;;;;;;;6.72;69.97;100485.94;5033946;28;20021;-72
2022/03/30 02:39:04;;;;;;;41.58;19.58;;;;;;;6.69;70.16;100475.59;5033018;28;20103;-70
2022/03/30 02:41:29;;;;;;;39.35;20.23;;;;;;;6.63;70.43;100468.34;5033832;28;20033;-70
2022/03/30 02:43:55;;;;;;;39.08;20.10;;;;;;;6.56;70.41;100460.28;5033379;28;20036;-70
2022/03/30 02:46:20;;;;;;;36.67;19.52;;;;;;;6.59;70.05;100464.44;5033416;28;20026;-70
2022/03/30 02:48:45;;;;;;;38.80;20.30;;;;;;;6.53;70.31;100464.22;5032845;28;20116;-70
2022/03/30 02:51:11;;;;;;;42.05;20.70;;;;;;;6.49;70.63;100460.31;5033356;28;20045;-70
2022/03/30 02:53:36;;;;;;;37.28;19.35;;;;;;;6.49;70.75;100459.47;5032930;28;20389;-70
2022/03/30 02:56:03;;;;;;;39.20;19.52;;;;;;;6.51;71.15;100460.09;5033198;28;20033;-70
2022/03/30 02:58:28;;;;;;;36.40;19.60;;;;;;;6.49;71.05;100457.63;5033109;28;20044;-70
2022/03/30 03:00:54;;;;;;;36.55;19.25;;;;;;;6.44;70.79;100460.09;5030382;28;20033;-70
2022/03/30 03:03:20;;;;;;;35.78;20.05;;;;;;;6.46;71.10;100460.72;5033151;28;20485;-70
2022/03/30 03:05:46;;;;;;;39.83;19.40;;;;;;;6.47;70.84;100457.00;5032867;28;20489;-70
2022/03/30 03:08:12;;;;;;;37.60;20.05;;;;;;;6.39;70.77;100455.34;5032524;28;20037;-70
2022/03/30 03:10:40;;;;;;;40.50;20.08;;;;;;;6.37;70.94;100459.25;5032800;28;20032;-69
2022/03/30 03:13:06;;;;;;;40.15;20.17;;;;;;;6.39;70.91;100449.97;5032633;28;20037;-69
2022/03/30 03:15:33;;;;;;;34.15;19.70;;;;;;;6.37;70.71;100456.56;5032968;28;20033;-69
2022/03/30 03:17:59;;;;;;;38.45;20.58;;;;;;;6.29;71.34;100454.91;5032570;28;20075;-70
2022/03/30 03:20:25;;;;;;;37.03;19.58;;;;;;;6.25;71.52;100452.84;5033076;28;20030;-70
2022/03/30 03:22:51;;;;;;;36.85;19.77;;;;;;;6.24;71.67;100443.97;5032486;28;20071;-70
2022/03/30 03:25:16;;;;;;;40.05;20.30;;;;;;;6.26;71.42;100444.59;5033040;28;20595;-70
2022/03/30 03:27:42;;;;;;;40.13;20.30;;;;;;;6.29;71.97;100448.72;5031511;28;20084;-70
2022/03/30 03:30:08;;;;;;;37.30;19.25;;;;;;;6.24;71.62;100441.28;5032138;28;20036;-69
2022/03/30 03:32:33;;;;;;;35.10;19.13;;;;;;;6.34;71.92;100439.03;5032447;28;20474;-70
2022/03/30 03:34:59;;;;;;;38.83;19.38;;;;;;;6.32;71.43;100443.75;5032437;28;20037;-70
2022/03/30 03:37:24;;;;;;;34.03;19.98;;;;;;;6.30;71.15;100435.09;5032193;28;20499;-69
2022/03/30 03:39:49;;;;;;;39.65;20.08;;;;;;;6.27;71.57;100437.38;5032239;28;20091;-69
2022/03/30 03:42:16;;;;;;;39.08;19.73;;;;;;;6.25;71.44;100436.72;5032572;28;20086;-70
2022/03/30 03:44:42;;;;;;;38.83;20.63;;;;;;;6.20;71.76;100445.41;5032558;28;20453;-69
2022/03/30 03:47:09;;;;;;;38.67;19.73;;;;;;;6.23;71.86;100434.25;5031738;28;20045;-70
2022/03/30 03:49:35;;;;;;;35.92;19.17;;;;;;;6.25;71.42;100431.34;5032319;28;20037;-70
2022/03/30 03:52:00;;;;;;;36.90;20.10;;;;;;;6.27;71.36;100430.13;5032143;28;20057;-70
2022/03/30 03:54:26;;;;;;;40.95;19.80;;;;;;;6.20;71.42;100430.13;5032288;28;20076;-70
2022/03/30 03:56:51;;;;;;;38.80;19.77;;;;;;;6.18;71.35;100434.88;5032390;28;20029;-70
2022/03/30 03:59:16;;;;;;;36.78;20.13;;;;;;;6.17;71.87;100433.22;5032199;28;20044;-69
2022/03/30 04:01:42;;;;;;;36.05;19.88;;;;;;;6.15;71.00;100427.22;5029500;28;20480;-69
2022/03/30 04:04:07;;;;;;;38.92;19.85;;;;;;;6.16;71.49;100428.88;5032049;28;20140;-69
2022/03/30 04:06:32;;;;;;;36.13;19.23;;;;;;;6.15;71.32;100426.41;5032376;28;20052;-70
2022/03/30 04:08:58;;;;;;;40.90;20.35;;;;;;;6.09;71.53;100422.69;5031940;28;20155;-70
2022/03/30 04:11:24;;;;;;;41.72;20.33;;;;;;;6.13;71.56;100417.72;5032708;28;20378;-70
2022/03/30 04:13:49;;;;;;;39.65;19.80;;;;;;;6.11;71.61;100420.59;5031623;28;20513;-69
2022/03/30 04:16:16;;;;;;;38.05;19.58;;;;;;;6.04;71.30;100419.78;5032269;28;20117;-69
2022/03/30 04:18:42;;;;;;;40.33;19.75;;;;;;;5.98;71.55;100415.25;5032242;28;20084;-69
2022/03/30 04:21:07;;;;;;;38.05;20.25;;;;;;;5.90;71.71;100413.53;5031552;28;20124;-69
2022/03/30 04:23:32;;;;;;;42.35;21.60;;;;;;;5.92;71.90;100407.94;5032197;28;20458;-69
2022/03/30 04:25:58;;;;;;;44.88;20.92;;;;;;;5.89;71.90;100411.06;5032529;28;20463;-69
2022/03/30 04:28:23;;;;;;;36.58;19.88;;;;;;;5.85;71.98;100414.16;5032073;28;20033;-68
2022/03/30 04:30:48;;;;;;;38.75;20.42;;;;;;;5.78;72.49;100410.66;4997682;28;20033;-68
2022/03/30 04:33:14;;;;;;;39.38;19.90;;;;;;;5.78;72.16;100418.69;5031423;28;20037;-68
2022/03/30 04:35:39;;;;;;;35.92;19.95;;;;;;;5.78;72.38;100416.03;5031852;28;20057;-68
2022/03/30 04:38:05;;;;;;;37.78;20.40;;;;;;;5.77;71.67;100408.16;5031753;28;20049;-68
2022/03/30 04:40:31;;;;;;;39.72;20.08;;;;;;;5.78;72.07;100407.97;5031504;28;20064;-68
2022/03/30 04:42:57;;;;;;;36.60;20.13;;;;;;;5.76;72.43;100418.06;5031546;28;20030;-69
2022/03/30 04:45:22;;;;;;;40.13;20.10;;;;;;;5.78;72.09;100421.38;5031747;28;20041;-69
2022/03/30 04:47:49;;;;;;;43.20;20.50;;;;;;;5.73;71.98;100418.47;5031866;28;20389;-69
2022/03/30 04:50:15;;;;;;;36.15;20.08;;;;;;;5.73;72.46;100429.22;5033268;28;20117;-69
2022/03/30 04:52:41;;;;;;;36.28;20.20;;;;;;;5.69;72.48;100427.94;5035709;28;20049;-69
2022/03/30 04:55:09;;;;;;;35.80;21.20;;;;;;;5.55;72.99;100423.59;5035425;28;20052;-69
2022/03/30 04:57:35;;;;;;;39.80;20.75;;;;;;;5.56;72.96;100427.94;5035700;28;20480;-70
2022/03/30 05:00:00;;;;;;;41.63;21.13;;;;;;;5.48;72.89;100427.09;5034938;28;20045;-70
2022/03/30 05:02:26;;;;;;;46.63;21.95;;;;;;;5.40;73.33;100434.50;5032979;28;20025;-70
2022/03/30 05:04:52;;;;;;;38.58;20.98;;;;;;;5.30;73.43;100424.16;5035428;28;20025;-74
2022/03/30 05:07:18;;;;;;;44.70;21.05;;;;;;;5.25;73.70;100430.09;5035404;28;20056;-73
2022/03/30 05:09:43;;;;;;;38.20;21.15;;;;;;;5.25;73.82;100426.59;5034721;28;20059;-71
2022/03/30 05:12:09;;;;;;;37.00;21.27;;;;;;;5.24;73.80;100424.91;5035034;28;20479;-71
2022/03/30 05:14:34;;;;;;;44.20;22.67;;;;;;;5.15;74.16;100425.09;5034813;28;20073;-71
2022/03/30 05:17:00;;;;;;;39.85;20.90;;;;;;;5.14;74.09;100419.94;5034738;28;20037;-70
2022/03/30 05:19:25;;;;;;;41.85;22.08;;;;;;;5.07;74.07;100411.88;5034840;28;20030;-72
2022/03/30 05:21:51;;;;;;;39.03;22.30;;;;;;;5.09;74.32;100407.13;5035045;28;20045;-72
2022/03/30 05:24:16;;;;;;;45.90;22.23;;;;;;;5.07;74.46;100411.88;5034664;28;20030;-71
2022/03/30 05:26:41;;;;;;;44.35;23.42;;;;;;;5.08;74.48;100410.84;5035276;28;20108;-70
2022/03/30 05:29:07;;;;;;;45.50;22.30;;;;;;;5.06;74.72;100407.53;5034771;28;20535;-69
2022/03/30 05:31:32;;;;;;;38.03;21.85;;;;;;;5.01;74.41;100412.66;5034854;28;20113;-71
2022/03/30 05:33:57;;;;;;;44.03;22.55;;;;;;;5.02;74.41;100408.94;5034708;28;20037;-69
2022/03/30 05:36:23;;;;;;;42.25;21.73;;;;;;;4.99;74.72;100409.34;5035330;28;20029;-71
2022/03/30 05:38:50;;;;;;;35.75;20.27;;;;;;;4.97;74.63;100411.41;5034966;28;20079;-70
2022/03/30 05:41:17;;;;;;;41.88;21.55;;;;;;;4.93;74.99;100412.81;5034626;28;20025;-70
2022/03/30 05:43:42;;;;;;;42.42;21.25;;;;;;;4.92;74.96;100406.66;5034676;28;20033;-69
2022/03/30 05:46:08;;;;;;;43.67;22.05;;;;;;;4.93;75.35;100413.66;5034685;28;20030;-71
2022/03/30 05:48:33;;;;;;;41.40;22.63;;;;;;;4.92;74.71;100400.44;5034430;28;20043;-71
2022/03/30 05:50:59;;;;;;;36.03;21.27;;;;;;;4.93;74.44;100407.47;5034345;28;20108;-70
2022/03/30 05:53:24;;;;;;;40.05;20.83;;;;;;;4.91;75.35;100396.94;5034714;28;20044;-70
2022/03/30 05:55:50;;;;;;;40.03;21.17;;;;;;;4.94;75.41;100399.22;5034798;28;20029;-71
2022/03/30 05:58:15;;;;;;;40.80;22.60;;;;;;;4.87;75.13;100413.63;5034283;28;20039;-71
2022/03/30 06:00:41;;;;;;;43.30;21.65;;;;;;;4.81;75.36;100404.50;5030358;28;20461;-70
2022/03/30 06:03:07;;;;;;;41.55;22.15;;;;;;;4.79;75.47;100409.25;5034164;28;20033;-71
2022/03/30 06:05:33;;;;;;;39.88;21.13;;;;;;;4.85;76.02;100415.69;5016815;28;20380;-71
2022/03/30 06:07:59;;;;;;;40.85;21.95;;;;;;;4.83;75.86;100415.03;5033912;28;20033;-69
2022/03/30 06:10:28;;;;;;;39.28;21.45;;;;;;;4.84;76.11;100414.03;5034485;28;20029;-71
2022/03/30 06:12:54;;;;;;;41.45;22.60;;;;;;;4.87;75.40;100413.63;5033934;28;20033;-70
2022/03/30 06:15:20;;;;;;;45.90;22.35;;;;;;;4.85;75.64;100413.81;5033896;28;20496;-70
2022/03/30 06:17:47;;;;;;;38.08;22.80;;;;;;;4.81;76.08;100427.81;5034152;28;20049;-71
2022/03/30 06:20:13;;;;;;;46.38;23.27;;;;;;;4.82;76.15;100426.81;5034011;28;20021;-70
2022/03/30 06:22:41;;;;;;;42.30;22.70;;;;;;;4.82;75.98;100429.50;5032842;28;20033;-71
2022/03/30 06:25:07;;;;;;;36.83;21.85;;;;;;;4.84;76.00;100430.91;5033856;28;20029;-71
2022/03/30 06:27:33;;;;;;;43.20;21.80;;;;;;;4.90;75.64;100423.94;5033728;28;20389;-70
2022/03/30 06:29:58;;;;;;;42.55;22.77;;;;;;;4.93;75.74;100424.38;5033728;28;20022;-70
2022/03/30 06:32:23;;;;;;;43.88;22.23;;;;;;;4.94;75.84;100422.53;5034007;28;20423;-71
2022/03/30 06:34:49;;;;;;;39.58;21.95;;;;;;;4.97;75.55;100428.31;5033905;28;20060;-71
2022/03/30 06:37:14;;;;;;;43.30;22.67;;;;;;;5.03;75.68;100426.72;5033488;28;20026;-70
2022/03/30 06:39:39;;;;;;;38.15;22.13;;;;;;;5.11;75.22;100421.16;5033923;28;20457;-70
2022/03/30 06:42:06;;;;;;;37.17;21.92;;;;;;;5.11;75.33;100425.72;5033529;28;20025;-70
2022/03/30 06:44:32;;;;;;;47.90;22.42;;;;;;;5.13;75.17;100416.44;5015775;28;20397;-71
2022/03/30 06:46:57;;;;;;;44.60;22.60;;;;;;;5.17;75.42;100418.72;5033746;28;20030;-71
2022/03/30 06:49:23;;;;;;;45.65;22.08;;;;;;;5.22;75.41;100421.63;5033534;28;20044;-71
2022/03/30 06:51:48;;;;;;;40.72;21.45;;;;;;;5.21;74.78;100417.28;5015641;28;20053;-70
2022/03/30 06:54:13;;;;;;;38.65;20.75;;;;;;;5.28;74.80;100418.97;5033684;28;20053;-70
2022/03/30 06:56:39;;;;;;;41.30;20.58;;;;;;;5.35;74.66;100413.63;5033509;28;20030;-70
2022/03/30 06:59:04;;;;;;;40.63;20.65;;;;;;;5.36;74.40;100420.66;5033156;28;20527;-70
2022/03/30 07:01:29;;;;;;;46.85;20.45;;;;;;;5.45;74.33;100414.06;5030935;28;20041;-71
2022/03/30 07:03:55;;;;;;;42.22;20.40;;;;;;;5.48;74.24;100407.47;5033197;28;20037;-70
2022/03/30 07:06:21;;;;;;;40.83;20.40;;;;;;;5.52;74.00;100400.66;5032858;28;20473;-70
2022/03/30 07:11:30;;;;;;;44.40;21.13;;;;;;;5.60;73.91;100410.38;5032969;28;20052;-70
2022/03/30 07:13:57;;;;;;;40.40;20.67;;;;;;;5.67;73.58;100416.59;5032447;28;20033;-71
2022/03/30 07:16:23;;;;;;;40.28;20.33;;;;;;;5.82;73.64;100424.47;5032998;28;20033;-70
2022/03/30 07:18:49;;;;;;;38.08;19.08;;;;;;;5.94;72.99;100412.09;5032988;28;20480;-70
2022/03/30 07:21:15;;;;;;;38.53;19.50;;;;;;;6.04;72.89;100409.06;5032858;28;20033;-70
2022/03/30 07:23:40;;;;;;;39.15;19.45;;;;;;;6.11;72.86;100409.84;5032933;28;20477;-71
2022/03/30 07:26:05;;;;;;;34.55;19.50;;;;;;;6.11;72.72;100409.84;5032697;28;20052;-70
2022/03/30 07:28:31;;;;;;;44.75;21.17;;;;;;;6.14;72.32;100414.81;5032606;28;20030;-70
2022/03/30 07:30:56;;;;;;;35.95;19.88;;;;;;;6.17;72.26;100406.34;5032992;28;20029;-70
2022/03/30 07:33:23;;;;;;;40.58;19.55;;;;;;;6.23;72.72;100420.81;5032601;28;20507;-71
2022/03/30 07:35:49;;;;;;;37.72;19.92;;;;;;;6.25;72.35;100412.53;5032709;28;20030;-70
2022/03/30 07:38:17;;;;;;;35.60;20.05;;;;;;;6.35;72.54;100416.47;5015045;28;20052;-70
2022/03/30 07:40:45;;;;;;;34.10;20.08;;;;;;;6.47;71.75;100407.78;5032753;28;20029;-70
2022/03/30 07:43:12;;;;;;;37.53;19.60;;;;;;;6.56;71.48;100406.53;5032412;28;20033;-70
2022/03/30 07:45:37;;;;;;;37.15;20.58;;;;;;;6.59;71.07;100405.28;5031554;28;20457;-70
2022/03/30 07:48:03;;;;;;;37.95;20.05;;;;;;;6.69;71.41;100411.06;5031995;28;20048;-71
2022/03/30 07:50:28;;;;;;;37.55;19.63;;;;;;;6.81;71.54;100409.38;5014957;28;20457;-70
2022/03/30 07:52:53;;;;;;;37.03;19.75;;;;;;;6.95;70.59;100398.59;5032623;28;20049;-70
2022/03/30 07:55:19;;;;;;;39.15;19.10;;;;;;;7.02;70.67;100407.44;5032205;28;20036;-71
2022/03/30 07:57:44;;;;;;;38.78;19.20;;;;;;;7.00;70.33;100402.28;5032386;28;20036;-71
2022/03/30 08:00:15;;;;;;;38.08;19.00;;;;;;;7.00;70.41;100404.16;5032317;28;20473;-71
2022/03/30 08:02:42;;;;;;;31.75;17.98;;;;;;;6.99;69.23;100410.56;5030266;28;20044;-71
2022/03/30 08:05:10;;;;;;;32.75;17.48;;;;;;;6.94;69.26;100407.69;5032107;28;20033;-70
2022/03/30 08:07:35;;;;;;;38.58;18.83;;;;;;;6.92;69.73;100402.53;5032491;28;20103;-70
2022/03/30 08:10:01;;;;;;;39.22;17.75;;;;;;;7.02;69.27;100410.13;5032006;28;20029;-70
2022/03/30 08:12:26;;;;;;;35.95;18.33;;;;;;;7.08;69.32;100414.66;5032036;28;20047;-70
2022/03/30 08:14:52;;;;;;;32.60;18.00;;;;;;;7.08;68.84;100415.50;5032107;28;20037;-70
2022/03/30 08:17:17;;;;;;;33.72;17.98;;;;;;;7.13;69.47;100416.75;5031951;28;20034;-69
2022/03/30 08:19:43;;;;;;;31.88;17.35;;;;;;;7.25;69.70;100420.41;5032148;28;20037;-70
2022/03/30 08:22:28;;;;;;;35.30;18.05;;;;;;;7.31;68.42;100416.00;5031796;28;20033;-71
2022/03/30 08:25:01;;;;;;;36.92;18.90;;;;;;;7.37;69.32;100413.31;5035134;28;20108;-69
2022/03/30 08:27:31;;;;;;;37.75;19.88;;;;;;;7.47;69.17;100423.59;5036189;28;20032;-71
2022/03/30 08:29:58;;;;;;;32.63;18.95;;;;;;;7.48;69.03;100422.56;5036341;28;20064;-69
2022/03/30 08:32:24;;;;;;;41.95;19.38;;;;;;;7.43;69.24;100417.84;5036012;28;20087;-70
2022/03/30 08:34:52;;;;;;;32.83;18.58;;;;;;;7.42;68.88;100413.47;5036294;28;20037;-70
2022/03/30 08:37:18;;;;;;;33.95;18.58;;;;;;;7.43;69.07;100409.75;5035794;28;20072;-71
2022/03/30 08:39:44;;;;;;;36.03;18.92;;;;;;;7.52;69.05;100409.50;5035964;28;20037;-70
2022/03/30 08:42:13;;;;;;;37.90;19.48;;;;;;;7.61;68.56;100408.22;5035779;28;20075;-71
2022/03/30 08:44:38;;;;;;;33.03;17.85;;;;;;;7.67;67.35;100410.03;5036222;28;20083;-69
2022/03/30 08:47:04;;;;;;;29.85;16.70;;;;;;;7.66;67.58;100399.50;5035836;28;20420;-70
2022/03/30 08:49:35;;;;;;;31.23;16.45;;;;;;;7.69;67.47;100399.06;5017889;28;20503;-70
2022/03/30 08:52:06;;;;;;;31.75;16.83;;;;;;;7.70;67.02;100400.69;5018420;28;20401;-71
2022/03/30 08:54:32;;;;;;;37.85;17.33;;;;;;;7.74;67.88;100397.34;5035838;28;20376;-71
2022/03/30 08:56:57;;;;;;;32.10;16.52;;;;;;;7.77;68.02;100396.91;5035696;28;20026;-70
2022/03/30 08:59:24;;;;;;;35.63;16.88;;;;;;;7.84;67.08;100396.88;5035447;28;20037;-71
2022/03/30 09:01:52;;;;;;;27.88;15.90;;;;;;;7.96;67.82;100400.50;5033065;28;20484;-70
2022/03/30 09:04:19;;;;;;;29.10;16.27;;;;;;;8.05;67.36;100393.00;5034955;28;20033;-70
2022/03/30 09:06:53;;;;;;;31.52;15.57;;;;;;;8.16;67.16;100399.53;5035654;28;20461;-70
2022/03/30 09:09:33;;;;;;;30.40;15.75;;;;;;;8.23;66.77;100399.47;5035150;28;20025;-70
2022/03/30 09:12:00;;;;;;;27.67;15.55;;;;;;;8.27;66.12;100401.53;5035375;28;20040;-70
2022/03/30 09:14:29;;;;;;;31.23;15.27;;;;;;;8.28;66.85;100399.66;5035217;28;20105;-70
2022/03/30 09:16:59;;;;;;;30.15;15.63;;;;;;;8.31;66.47;100400.03;5035304;28;20030;-70
2022/03/30 09:19:26;;;;;;;29.40;16.25;;;;;;;8.35;66.84;100392.34;5035045;28;20358;-71
2022/03/30 09:21:57;;;;;;;28.80;15.35;;;;;;;8.36;66.00;100387.75;5017895;28;20060;-71
2022/03/30 09:24:25;;;;;;;31.15;15.45;;;;;;;8.38;66.61;100391.03;5035162;28;20120;-71
2022/03/30 09:26:51;;;;;;;31.83;15.50;;;;;;;8.41;66.01;100391.44;5035177;28;20029;-71
2022/03/30 09:29:21;;;;;;;26.65;15.43;;;;;;;8.41;65.54;100388.75;5035314;28;20464;-71
2022/03/30 09:31:51;;;;;;;26.20;16.17;;;;;;;8.47;66.26;100382.50;5035189;28;20029;-71
2022/03/30 09:34:18;;;;;;;29.98;16.17;;;;;;;8.52;65.59;100371.84;5034842;28;20028;-71
2022/03/30 09:36:44;;;;;;;27.17;15.07;;;;;;;8.60;64.73;100372.63;5034283;28;20041;-71
2022/03/30 09:39:28;;;;;;;33.00;16.00;;;;;;;8.62;65.45;100376.75;5034646;28;20033;-72
2022/03/30 09:41:54;;;;;;;28.95;16.35;;;;;;;8.64;65.05;100368.44;5034640;28;20036;-71
2022/03/30 09:44:22;;;;;;;31.65;16.08;;;;;;;8.66;65.43;100364.44;5034520;28;20040;-70
2022/03/30 09:47:07;;;;;;;35.40;16.25;;;;;;;8.76;65.56;100365.81;5034791;28;20030;-71
2022/03/30 09:49:46;;;;;;;32.67;15.82;;;;;;;8.79;64.06;100365.38;5033267;28;20029;-70
2022/03/30 09:52:17;;;;;;;27.80;15.85;;;;;;;8.79;64.14;100366.19;5034618;28;20115;-70
2022/03/30 09:54:54;;;;;;;28.35;15.88;;;;;;;8.84;65.09;100363.63;5034138;28;20435;-70
2022/03/30 09:57:21;;;;;;;27.65;16.02;;;;;;;8.89;64.42;100360.25;5034576;28;20025;-72
2022/03/30 10:00:07;;;;;;;27.90;16.60;;;;;;;8.97;64.32;100364.53;5034485;28;20056;-69
2022/03/30 10:02:38;;;;;;;31.83;17.05;;;;;;;8.99;63.79;100354.31;5013984;28;20029;-69
2022/03/30 10:05:06;;;;;;;31.15;17.00;;;;;;;9.03;63.38;100352.81;5034553;28;20029;-70
2022/03/30 10:07:32;;;;;;;27.35;17.55;;;;;;;9.20;64.93;100355.72;5034128;28;20075;-70
2022/03/30 10:09:59;;;;;;;25.98;16.45;;;;;;;9.32;63.62;100351.19;5034488;28;20025;-71
2022/03/30 10:12:26;;;;;;;31.40;17.27;;;;;;;9.37;63.10;100348.59;5034039;28;20037;-71
2022/03/30 10:14:53;;;;;;;24.75;16.45;;;;;;;9.30;61.70;100347.06;5034005;28;20048;-71
2022/03/30 10:17:19;;;;;;;29.02;15.73;;;;;;;9.34;62.40;100343.66;5033898;28;20096;-70
2022/03/30 10:19:46;;;;;;;27.17;16.05;;;;;;;9.40;62.32;100345.47;5034019;28;20128;-71
2022/03/30 10:22:43;;;;;;;27.23;15.93;;;;;;;9.53;62.18;100340.94;5033664;28;20093;-70
2022/03/30 10:25:30;;;;;;;27.00;16.35;;;;;;;9.61;62.34;100340.59;5034141;28;20033;-71
2022/03/30 10:28:08;;;;;;;30.83;16.00;;;;;;;9.54;61.61;100335.31;5033885;28;20021;-70
2022/03/30 10:30:34;;;;;;;30.30;16.45;;;;;;;9.61;61.14;100326.28;5033667;28;20029;-70
2022/03/30 10:33:02;;;;;;;30.20;15.27;;;;;;;9.66;60.80;100338.03;5033734;28;20025;-70
2022/03/30 10:35:41;;;;;;;27.73;15.68;;;;;;;9.84;62.15;100330.88;5015929;28;20045;-70
2022/03/30 10:38:08;;;;;;;23.92;15.95;;;;;;;9.86;60.96;100320.69;5033481;28;20393;-69
2022/03/30 10:40:34;;;;;;;26.90;16.00;;;;;;;9.86;59.57;100312.56;5033443;28;20033;-69
2022/03/30 10:43:03;;;;;;;28.77;16.00;;;;;;;9.82;59.28;100316.78;5033754;28;20033;-72
2022/03/30 10:45:28;;;;;;;26.80;15.57;;;;;;;9.86;58.81;100313.38;5033570;28;20038;-70
2022/03/30 10:48:27;;;;;;;23.45;15.07;;;;;;;9.86;59.56;100313.38;5033976;28;20029;-70
2022/03/30 10:51:20;;;;;;;27.58;16.20;;;;;;;9.94;60.20;100307.63;5033335;28;20033;-70
2022/03/30 10:53:50;;;;;;;27.35;15.75;;;;;;;10.05;59.93;100303.28;5031186;28;20045;-70
2022/03/30 10:56:15;;;;;;;27.67;14.90;;;;;;;10.13;59.88;100293.16;5033418;28;20026;-70
2022/03/30 10:58:49;;;;;;;28.40;16.00;;;;;;;10.21;59.53;100290.94;5033677;28;20033;-70
2022/03/30 11:01:38;;;;;;;26.08;14.82;;;;;;;10.28;59.57;100291.66;5030246;28;20288;-70
2022/03/30 11:04:13;;;;;;;30.20;15.57;;;;;;;10.31;58.83;100287.66;5033404;28;20079;-70
2022/03/30 11:06:43;;;;;;;24.67;15.93;;;;;;;10.49;59.66;100281.28;5033139;28;20083;-70
2022/03/30 11:09:19;;;;;;;25.00;15.57;;;;;;;10.56;57.65;100278.47;5033652;28;20033;-70
2022/03/30 11:11:44;;;;;;;23.67;14.93;;;;;;;10.67;57.56;100287.59;5033180;28;20027;-69
2022/03/30 11:14:34;;;;;;;25.23;15.98;;;;;;;10.81;58.87;100275.47;5032846;28;20075;-70
2022/03/30 11:17:03;;;;;;;27.33;15.15;;;;;;;10.84;58.22;100271.44;5033319;28;20033;-70
2022/03/30 11:19:57;;;;;;;27.05;15.02;;;;;;;10.93;58.58;100272.69;5033079;28;20030;-71
2022/03/30 11:22:28;;;;;;;27.15;14.90;;;;;;;11.00;57.41;100259.81;5032495;28;20033;-70